Time;durP1;ratioP1;P1;durP2;ratioP2;P2;SDS_P1;SDS_P2;PMS_P1;PMS_P2;Temp;Humidity;BMP_temperature;BMP_pressure;BME280_temperature;BME280_humidity;BME280_pressure;Samples;Min_cycle;Max_cycle;Signal;HPM_P1;HPM_P2
2023/08/30 00:00:48;;;;;;;1302.47;999.90;;;13.00;99.90;;;;;;5077127;28;20576;-85
2023/08/30 00:03:13;;;;;;;1192.45;995.35;;;13.00;99.90;;;;;;5107078;28;20411;-84
2023/08/30 00:05:40;;;;;;;1366.63;999.90;;;13.00;99.90;;;;;;5098470;28;20036;-84
2023/08/30 00:08:06;;;;;;;1225.13;999.90;;;12.90;99.90;;;;;;5083002;28;20562;-84
2023/08/30 00:10:32;;;;;;;1338.45;999.90;;;12.90;99.90;;;;;;5106301;28;20044;-84
2023/08/30 00:12:58;;;;;;;1204.40;999.53;;;12.90;99.90;;;;;;5084114;28;20578;-84
2023/08/30 00:15:27;;;;;;;1359.88;999.90;;;12.90;99.90;;;;;;5107697;28;20119;-85
2023/08/30 00:17:53;;;;;;;1390.63;999.90;;;12.80;99.90;;;;;;5086015;28;20385;-85
2023/08/30 00:20:19;;;;;;;1304.30;999.90;;;12.80;99.90;;;;;;5067430;28;20039;-85
2023/08/30 00:22:45;;;;;;;1389.43;999.90;;;12.80;99.90;;;;;;5073507;28;20039;-84
2023/08/30 00:25:11;;;;;;;1386.38;999.90;;;12.80;99.90;;;;;;5086128;28;20616;-84
2023/08/30 00:27:37;;;;;;;1413.90;999.90;;;12.70;99.90;;;;;;5060696;28;20483;-85
2023/08/30 00:30:04;;;;;;;1307.43;999.90;;;12.70;99.90;;;;;;5102877;28;20123;-85
2023/08/30 00:32:29;;;;;;;1269.40;999.90;;;12.70;99.90;;;;;;5064236;28;20036;-84
2023/08/30 00:34:55;;;;;;;1346.18;999.90;;;12.60;99.90;;;;;;5082809;28;20105;-84
2023/08/30 00:37:21;;;;;;;1365.15;999.90;;;12.60;99.90;;;;;;5091115;28;20056;-84
2023/08/30 00:39:46;;;;;;;1350.88;999.90;;;12.60;99.90;;;;;;5088135;28;20051;-85
2023/08/30 00:42:12;;;;;;;1487.70;999.90;;;12.60;99.90;;;;;;5097994;28;20079;-85
2023/08/30 00:44:38;;;;;;;1409.28;999.90;;;12.60;99.90;;;;;;5089575;28;20036;-84
2023/08/30 00:47:04;;;;;;;1405.88;999.90;;;12.60;99.90;;;;;;5089670;28;20044;-84
2023/08/30 00:49:31;;;;;;;1500.43;999.90;;;12.50;99.90;;;;;;5088530;28;20043;-84
2023/08/30 00:52:02;;;;;;;1410.18;999.90;;;12.50;99.90;;;;;;5090315;28;20047;-85
2023/08/30 00:54:28;;;;;;;1499.45;999.90;;;12.60;99.90;;;;;;5078647;28;20044;-85
2023/08/30 00:56:54;;;;;;;1380.35;999.90;;;12.70;99.90;;;;;;5071394;28;20055;-85
2023/08/30 00:59:21;;;;;;;1560.50;999.90;;;12.70;99.90;;;;;;5089514;28;20040;-84
2023/08/30 01:01:48;;;;;;;1562.10;999.90;;;12.80;99.90;;;;;;5088421;28;20040;-85
2023/08/30 01:04:14;;;;;;;1412.95;999.90;;;12.80;99.90;;;;;;5071597;28;20127;-85
2023/08/30 01:06:41;;;;;;;1526.40;999.90;;;12.90;99.90;;;;;;5071110;28;20043;-85
2023/08/30 01:09:07;;;;;;;1582.93;999.90;;;12.90;99.90;;;;;;5081595;28;20044;-85
2023/08/30 01:11:45;;;;;;;1435.93;999.90;;;12.90;99.90;;;;;;5084942;28;20486;-85
2023/08/30 01:14:18;;;;;;;1397.35;999.90;;;12.90;99.90;;;;;;5098546;28;20052;-85
2023/08/30 01:16:44;;;;;;;1549.28;999.90;;;12.90;99.90;;;;;;5088257;28;20147;-84
2023/08/30 01:19:29;;;;;;;1382.75;999.90;;;12.90;99.90;;;;;;5090466;28;20701;-85
2023/08/30 01:22:33;;;;;;;1423.40;999.90;;;12.90;99.90;;;;;;5085628;28;20102;-84
2023/08/30 01:25:08;;;;;;;1555.28;999.90;;;12.80;99.90;;;;;;4986292;28;20132;-85
2023/08/30 01:27:34;;;;;;;1578.68;999.90;;;12.80;99.90;;;;;;4994552;28;20052;-84
2023/08/30 01:30:02;;;;;;;1511.70;999.90;;;12.80;99.90;;;;;;5060623;28;20067;-85
2023/08/30 01:32:30;;;;;;;1416.00;999.90;;;12.70;99.90;;;;;;5088275;28;20036;-84
2023/08/30 01:34:57;;;;;;;1541.13;999.90;;;12.70;99.90;;;;;;5087652;28;20356;-84
2023/08/30 01:37:24;;;;;;;1395.95;999.90;;;12.70;99.90;;;;;;5087877;28;20066;-85
2023/08/30 01:39:51;;;;;;;1470.13;999.90;;;12.70;99.90;;;;;;5076898;28;20407;-85
2023/08/30 01:42:21;;;;;;;1487.03;999.90;;;12.70;99.90;;;;;;5088344;28;20052;-84
2023/08/30 01:44:48;;;;;;;1506.82;999.90;;;12.70;99.90;;;;;;5088458;28;20093;-85
2023/08/30 01:47:16;;;;;;;1534.30;999.90;;;12.70;99.90;;;;;;5087987;28;20040;-84
2023/08/30 01:49:43;;;;;;;1497.95;999.90;;;12.60;99.90;;;;;;5087664;28;20036;-84
2023/08/30 01:52:10;;;;;;;1496.57;999.90;;;12.60;99.90;;;;;;5070047;28;20076;-84
2023/08/30 01:54:37;;;;;;;1384.45;999.90;;;12.60;99.90;;;;;;5087511;28;20044;-84
2023/08/30 01:57:06;;;;;;;1522.18;999.90;;;12.50;99.90;;;;;;5089535;28;20036;-84
2023/08/30 01:59:31;;;;;;;1535.28;999.90;;;12.50;99.90;;;;;;5086114;28;20047;-85
2023/08/30 02:01:57;;;;;;;1443.38;999.90;;;12.50;99.90;;;;;;5088058;28;20140;-85
2023/08/30 02:04:23;;;;;;;1546.47;999.90;;;12.50;99.90;;;;;;5070500;28;20047;-84
2023/08/30 02:07:03;;;;;;;1462.80;999.90;;;12.50;99.90;;;;;;5088280;28;20036;-84
2023/08/30 02:09:53;;;;;;;1566.00;999.90;;;12.50;99.90;;;;;;5087160;28;20115;-84
2023/08/30 02:12:24;;;;;;;1444.53;999.90;;;12.50;99.90;;;;;;5104469;28;20101;-84
2023/08/30 02:14:50;;;;;;;1559.32;999.90;;;12.50;99.90;;;;;;5087736;28;20094;-84
2023/08/30 02:17:17;;;;;;;1562.97;999.90;;;12.50;99.90;;;;;;5071165;28;20083;-85
2023/08/30 02:19:44;;;;;;;1556.82;999.90;;;12.50;99.90;;;;;;5086092;28;20040;-84
2023/08/30 02:22:10;;;;;;;1521.53;999.90;;;12.50;99.90;;;;;;5087910;28;20039;-84
2023/08/30 02:24:36;;;;;;;1575.03;999.90;;;12.50;99.90;;;;;;5085992;28;20040;-84
2023/08/30 02:27:02;;;;;;;1526.82;999.90;;;12.50;99.90;;;;;;5069416;28;20051;-84
2023/08/30 02:29:28;;;;;;;1393.50;999.90;;;12.50;99.90;;;;;;5086933;28;20036;-84
2023/08/30 02:31:53;;;;;;;1406.35;999.90;;;12.40;99.90;;;;;;5103781;28;20499;-84
2023/08/30 02:34:19;;;;;;;1560.93;999.90;;;12.40;99.90;;;;;;5090208;28;20094;-85
2023/08/30 02:36:45;;;;;;;1527.15;999.90;;;12.40;99.90;;;;;;5089431;28;20044;-85
2023/08/30 02:39:13;;;;;;;1508.85;999.90;;;12.40;99.90;;;;;;5066455;28;20051;-84
2023/08/30 02:41:40;;;;;;;1511.88;999.90;;;12.40;99.90;;;;;;5069700;28;20047;-84
2023/08/30 02:44:07;;;;;;;1430.35;999.90;;;12.40;99.90;;;;;;5095198;28;20075;-85
2023/08/30 02:46:33;;;;;;;1404.45;999.90;;;12.40;99.90;;;;;;5073124;28;20066;-84
2023/08/30 02:48:59;;;;;;;1509.78;999.90;;;12.40;99.90;;;;;;5089446;28;20086;-84
2023/08/30 02:51:24;;;;;;;1438.70;999.90;;;12.40;99.90;;;;;;5073767;28;20130;-85
2023/08/30 02:53:50;;;;;;;1505.15;999.90;;;12.40;99.90;;;;;;5089692;28;20054;-84
2023/08/30 02:56:16;;;;;;;1395.38;999.90;;;12.50;99.90;;;;;;5072062;28;20476;-85
2023/08/30 02:58:42;;;;;;;1432.55;999.90;;;12.50;99.90;;;;;;5079008;28;20047;-85
2023/08/30 03:01:07;;;;;;;1538.03;999.90;;;12.50;99.90;;;;;;5093879;28;20051;-85
2023/08/30 03:03:33;;;;;;;1527.97;999.90;;;12.50;99.90;;;;;;5087340;28;20083;-85
2023/08/30 03:05:59;;;;;;;1532.78;999.90;;;12.50;99.90;;;;;;5106416;28;20375;-84
2023/08/30 03:08:24;;;;;;;1419.78;999.90;;;12.50;99.90;;;;;;5089857;28;20040;-84
2023/08/30 03:10:50;;;;;;;1438.03;999.90;;;12.50;99.90;;;;;;5088171;28;20055;-84
2023/08/30 03:13:16;;;;;;;1377.05;999.90;;;12.50;99.90;;;;;;5089216;28;20058;-85
2023/08/30 03:15:41;;;;;;;1478.50;999.90;;;12.50;99.90;;;;;;5096216;28;20140;-84
2023/08/30 03:18:07;;;;;;;1549.25;999.90;;;12.50;99.90;;;;;;5070006;28;20044;-84
2023/08/30 03:20:33;;;;;;;1432.97;999.90;;;12.50;99.90;;;;;;5089664;28;20086;-84
2023/08/30 03:22:58;;;;;;;1437.90;999.90;;;12.40;99.90;;;;;;5088211;28;20089;-84
2023/08/30 03:25:24;;;;;;;1463.20;999.90;;;12.40;99.90;;;;;;5069420;28;20036;-84
2023/08/30 03:27:50;;;;;;;1434.60;999.90;;;12.40;99.90;;;;;;5104424;28;20556;-84
2023/08/30 03:30:16;;;;;;;1472.78;999.90;;;12.40;99.90;;;;;;5089619;28;20035;-84
2023/08/30 03:32:41;;;;;;;1567.30;999.90;;;12.40;99.90;;;;;;5072325;28;20051;-85
2023/08/30 03:35:08;;;;;;;1568.60;999.90;;;12.30;99.90;;;;;;5089807;28;20047;-84
2023/08/30 03:37:34;;;;;;;1476.78;999.90;;;12.30;99.90;;;;;;5071477;28;20325;-84
2023/08/30 03:39:59;;;;;;;1567.13;999.90;;;12.30;99.90;;;;;;5095908;28;20483;-84
2023/08/30 03:42:25;;;;;;;1485.88;999.90;;;12.20;99.90;;;;;;5087548;28;20135;-84
2023/08/30 03:44:51;;;;;;;1554.90;999.90;;;12.20;99.90;;;;;;5086510;28;20472;-85
2023/08/30 03:47:17;;;;;;;1503.85;999.90;;;12.10;99.90;;;;;;5086752;28;20063;-84
2023/08/30 03:49:44;;;;;;;1561.60;999.90;;;12.10;99.90;;;;;;5071400;28;20462;-85
2023/08/30 03:52:09;;;;;;;1580.07;999.90;;;12.00;99.90;;;;;;5088611;28;20075;-84
2023/08/30 03:54:36;;;;;;;1623.40;999.90;;;12.00;99.90;;;;;;5070404;28;20144;-84
2023/08/30 03:57:02;;;;;;;1576.22;999.90;;;12.00;99.90;;;;;;5089501;28;20047;-84
2023/08/30 03:59:28;;;;;;;1617.07;999.90;;;11.90;99.90;;;;;;5071635;28;20083;-84
2023/08/30 04:01:54;;;;;;;1624.40;999.90;;;11.90;99.90;;;;;;5105217;28;20075;-84
2023/08/30 04:04:20;;;;;;;1607.72;999.90;;;11.90;99.90;;;;;;5096633;28;20519;-84
2023/08/30 04:06:45;;;;;;;1622.10;999.90;;;11.80;99.90;;;;;;5087436;28;20096;-84
2023/08/30 04:09:11;;;;;;;1652.22;999.90;;;11.80;99.90;;;;;;5071754;28;20075;-84
2023/08/30 04:11:37;;;;;;;1698.47;999.90;;;11.90;99.90;;;;;;5087201;28;20126;-84
2023/08/30 04:14:03;;;;;;;1620.28;999.90;;;11.80;99.90;;;;;;5095700;28;20040;-85
2023/08/30 04:16:29;;;;;;;1499.80;999.90;;;11.80;99.90;;;;;;5088257;28;20509;-84
2023/08/30 04:18:55;;;;;;;1487.57;999.90;;;11.80;99.90;;;;;;5093332;28;20105;-84
2023/08/30 04:21:20;;;;;;;1610.63;999.90;;;11.80;99.90;;;;;;5083440;28;20044;-84
2023/08/30 04:23:46;;;;;;;1505.85;999.90;;;11.80;99.90;;;;;;5067978;28;20047;-84
2023/08/30 04:26:12;;;;;;;1507.28;999.90;;;11.80;99.90;;;;;;5086776;28;20058;-84
2023/08/30 04:28:37;;;;;;;1533.68;999.90;;;11.80;99.90;;;;;;5079442;28;20039;-84
2023/08/30 04:31:04;;;;;;;1442.80;999.90;;;11.80;99.90;;;;;;5074187;28;20044;-83
2023/08/30 04:33:30;;;;;;;1477.40;999.90;;;11.80;99.90;;;;;;5071595;28;20044;-84
2023/08/30 04:35:56;;;;;;;1400.35;999.90;;;11.70;99.90;;;;;;5083139;28;20097;-83
2023/08/30 04:38:22;;;;;;;1643.93;999.90;;;11.70;99.90;;;;;;5101120;28;20054;-84
2023/08/30 04:40:48;;;;;;;1538.15;999.90;;;11.70;99.90;;;;;;5065914;28;20070;-84
2023/08/30 04:43:14;;;;;;;1474.05;999.90;;;11.70;99.90;;;;;;5084212;28;20077;-83
2023/08/30 04:45:40;;;;;;;1462.43;999.90;;;11.70;99.90;;;;;;5082719;28;20148;-84
2023/08/30 04:48:06;;;;;;;1657.38;999.90;;;11.60;99.90;;;;;;5082474;28;20135;-84
2023/08/30 04:50:32;;;;;;;1469.75;999.90;;;11.70;99.90;;;;;;5066017;28;20040;-85
2023/08/30 04:52:58;;;;;;;1628.70;999.90;;;11.70;99.90;;;;;;5063028;28;20044;-84
2023/08/30 04:55:25;;;;;;;1681.10;999.90;;;11.60;99.90;;;;;;5098790;28;20498;-84
2023/08/30 04:57:51;;;;;;;1496.18;999.90;;;11.60;99.90;;;;;;5084804;28;20563;-84
2023/08/30 05:00:20;;;;;;;1665.60;999.90;;;11.50;99.90;;;;;;5068277;28;20487;-84
2023/08/30 05:02:46;;;;;;;1705.35;999.90;;;11.50;99.90;;;;;;5072280;28;20048;-84
2023/08/30 05:05:13;;;;;;;1444.78;999.90;;;11.50;99.90;;;;;;5082519;28;20368;-84
2023/08/30 05:07:39;;;;;;;1421.55;999.90;;;11.50;99.90;;;;;;5085789;28;20047;-84
2023/08/30 05:10:06;;;;;;;1708.75;999.90;;;11.50;99.90;;;;;;5070042;28;20044;-84
2023/08/30 05:12:33;;;;;;;1506.13;999.90;;;11.60;99.90;;;;;;5071172;28;20471;-84
2023/08/30 05:14:59;;;;;;;1623.32;999.90;;;11.60;99.90;;;;;;5089825;28;20048;-84
2023/08/30 05:17:25;;;;;;;1587.80;999.90;;;11.60;99.90;;;;;;5102913;28;20522;-83
2023/08/30 05:19:51;;;;;;;1658.07;999.90;;;11.70;99.90;;;;;;5088755;28;20116;-84
2023/08/30 05:22:16;;;;;;;1449.05;999.90;;;11.70;99.90;;;;;;5089921;28;20500;-84
2023/08/30 05:24:42;;;;;;;1431.38;999.90;;;11.70;99.90;;;;;;5086160;28;20043;-83
2023/08/30 05:27:08;;;;;;;1416.60;999.90;;;11.80;99.90;;;;;;5105937;28;20052;-85
2023/08/30 05:29:33;;;;;;;1556.15;999.90;;;11.90;99.90;;;;;;5069623;28;20509;-83
2023/08/30 05:31:59;;;;;;;1534.22;999.90;;;12.00;99.90;;;;;;5088499;28;20036;-84
2023/08/30 05:34:26;;;;;;;1447.90;999.90;;;12.00;99.90;;;;;;5097414;28;20124;-84
2023/08/30 05:36:53;;;;;;;1396.53;999.90;;;12.10;99.90;;;;;;5086567;28;20490;-84
2023/08/30 05:39:18;;;;;;;1526.25;999.90;;;12.20;99.90;;;;;;5069664;28;20519;-83
2023/08/30 05:41:44;;;;;;;1519.88;999.90;;;12.20;99.90;;;;;;5069717;28;20048;-83
2023/08/30 05:44:10;;;;;;;1383.97;999.90;;;12.30;99.90;;;;;;5102438;28;20040;-83
2023/08/30 05:46:36;;;;;;;1549.20;999.90;;;12.40;99.90;;;;;;5086558;28;20047;-83
2023/08/30 05:49:02;;;;;;;1287.68;999.90;;;12.50;99.90;;;;;;5087185;28;20540;-83
2023/08/30 05:51:29;;;;;;;1312.07;999.90;;;12.60;99.90;;;;;;5087812;28;20533;-83
2023/08/30 05:53:54;;;;;;;1362.97;999.90;;;12.70;99.90;;;;;;5087119;28;20510;-84
2023/08/30 05:56:20;;;;;;;1342.30;999.90;;;12.80;99.90;;;;;;5086009;28;20063;-84
2023/08/30 05:58:46;;;;;;;1487.03;999.90;;;12.80;99.90;;;;;;5102397;28;20044;-83
2023/08/30 06:01:11;;;;;;;1316.63;999.90;;;12.90;99.90;;;;;;5085548;28;20643;-83
2023/08/30 06:03:37;;;;;;;1476.38;999.90;;;12.90;99.90;;;;;;5089189;28;20093;-83
2023/08/30 06:06:03;;;;;;;1444.63;999.90;;;12.90;99.90;;;;;;5086325;28;20040;-83
2023/08/30 06:08:29;;;;;;;1241.70;999.83;;;13.00;99.90;;;;;;5086399;28;20412;-83
2023/08/30 06:10:55;;;;;;;1377.00;999.90;;;13.10;99.90;;;;;;5084477;28;20541;-83
2023/08/30 06:13:20;;;;;;;1461.45;999.90;;;13.20;99.90;;;;;;5083428;28;20172;-83
2023/08/30 06:15:51;;;;;;;1360.32;999.90;;;13.30;99.90;;;;;;5084382;28;20051;-84
2023/08/30 06:18:16;;;;;;;1369.25;999.90;;;13.40;99.90;;;;;;5085588;28;20105;-83
2023/08/30 06:20:42;;;;;;;1330.95;999.90;;;13.40;99.90;;;;;;5086477;28;20507;-83
2023/08/30 06:23:08;;;;;;;1341.43;999.90;;;13.40;99.90;;;;;;5087387;28;20032;-83
2023/08/30 06:25:33;;;;;;;1244.95;999.90;;;13.50;99.90;;;;;;5088034;28;20376;-84
2023/08/30 06:28:01;;;;;;;1295.70;998.67;;;13.50;99.90;;;;;;5087637;28;20123;-83
2023/08/30 06:30:27;;;;;;;1308.30;999.90;;;13.60;99.90;;;;;;5070427;28;20531;-80
2023/08/30 06:32:53;;;;;;;1277.18;999.90;;;13.70;99.90;;;;;;5087149;28;20055;-80
2023/08/30 06:35:18;;;;;;;1287.15;999.90;;;13.70;99.90;;;;;;5070053;28;20344;-81
2023/08/30 06:37:44;;;;;;;1245.18;998.25;;;13.80;99.90;;;;;;5086610;28;20043;-81
2023/08/30 06:40:10;;;;;;;1263.32;998.97;;;13.90;99.90;;;;;;5073537;28;20056;-81
2023/08/30 06:42:36;;;;;;;1265.40;999.90;;;13.90;99.90;;;;;;5088086;28;20048;-83
2023/08/30 06:45:04;;;;;;;1164.68;978.45;;;14.00;99.90;;;;;;5053338;28;20136;-82
2023/08/30 06:47:29;;;;;;;1187.25;989.88;;;14.10;99.90;;;;;;5056409;28;20032;-83
2023/08/30 06:49:55;;;;;;;1295.38;999.90;;;14.10;99.90;;;;;;5069547;28;20043;-83
2023/08/30 06:52:21;;;;;;;1204.40;993.30;;;14.20;99.90;;;;;;5053735;28;20457;-83
2023/08/30 06:54:46;;;;;;;1239.93;999.90;;;14.30;99.90;;;;;;5067684;28;20071;-83
2023/08/30 06:57:12;;;;;;;1072.75;921.10;;;14.30;99.90;;;;;;5088112;28;20422;-83
2023/08/30 06:59:38;;;;;;;1003.15;890.05;;;14.40;99.90;;;;;;5068906;28;20403;-83
2023/08/30 07:02:04;;;;;;;951.40;846.72;;;14.40;99.90;;;;;;5086205;28;20127;-83
2023/08/30 07:04:29;;;;;;;827.33;739.95;;;14.30;99.90;;;;;;5053477;28;20525;-82
2023/08/30 07:06:55;;;;;;;883.42;785.70;;;14.40;99.90;;;;;;5087141;28;20072;-83
2023/08/30 07:09:28;;;;;;;811.25;725.95;;;14.40;99.90;;;;;;5051591;28;20090;-82
2023/08/30 07:11:56;;;;;;;887.90;789.67;;;14.40;99.90;;;;;;5057960;28;20118;-83
2023/08/30 07:14:22;;;;;;;788.00;703.67;;;14.50;99.90;;;;;;5087860;28;20127;-82
2023/08/30 07:16:49;;;;;;;764.42;682.97;;;14.50;99.90;;;;;;5074386;28;20518;-83
2023/08/30 07:19:18;;;;;;;827.90;736.67;;;14.50;99.90;;;;;;5088001;28;20503;-82
2023/08/30 07:21:46;;;;;;;813.00;726.47;;;14.60;99.90;;;;;;5086516;28;20047;-83
2023/08/30 07:24:12;;;;;;;907.28;803.28;;;14.50;99.90;;;;;;5085129;28;20127;-83
2023/08/30 07:26:53;;;;;;;837.97;749.20;;;14.50;99.90;;;;;;5068683;28;20141;-83
2023/08/30 07:29:19;;;;;;;855.17;755.47;;;14.50;99.90;;;;;;5065412;28;20443;-83
2023/08/30 07:31:44;;;;;;;794.42;710.47;;;14.50;99.90;;;;;;5060390;28;20036;-83
2023/08/30 07:34:10;;;;;;;785.08;702.97;;;14.60;99.90;;;;;;5092371;28;20060;-83
2023/08/30 07:36:36;;;;;;;846.75;753.13;;;14.60;99.90;;;;;;5072488;28;20050;-83
2023/08/30 07:39:02;;;;;;;726.35;650.40;;;14.60;99.90;;;;;;5066046;28;20131;-83
2023/08/30 07:41:27;;;;;;;753.83;674.72;;;14.70;99.90;;;;;;5082156;28;20147;-83
2023/08/30 07:43:53;;;;;;;841.55;750.45;;;14.70;99.90;;;;;;5065535;28;20048;-83
2023/08/30 07:46:18;;;;;;;826.10;735.70;;;14.90;99.90;;;;;;5066588;28;20387;-83
2023/08/30 07:48:44;;;;;;;778.22;692.63;;;14.90;99.90;;;;;;5082206;28;20055;-83
2023/08/30 07:51:10;;;;;;;750.75;669.67;;;15.00;99.90;;;;;;5085537;28;20036;-83
2023/08/30 07:53:36;;;;;;;813.05;719.95;;;15.10;99.90;;;;;;5086137;28;20046;-83
2023/08/30 07:56:01;;;;;;;753.40;670.92;;;15.30;99.90;;;;;;5077722;28;20036;-83
2023/08/30 07:58:27;;;;;;;766.58;682.55;;;15.50;99.90;;;;;;5085457;28;20046;-83
2023/08/30 08:00:53;;;;;;;658.67;590.70;;;15.70;99.90;;;;;;5085010;28;20119;-83
2023/08/30 08:03:23;;;;;;;772.22;689.63;;;15.80;99.90;;;;;;5099548;28;20119;-83
2023/08/30 08:05:48;;;;;;;862.15;768.33;;;15.90;99.90;;;;;;5058959;28;20150;-83
2023/08/30 08:08:14;;;;;;;831.42;745.22;;;15.90;99.90;;;;;;5090507;28;20047;-83
2023/08/30 08:10:42;;;;;;;829.03;743.33;;;15.90;99.90;;;;;;5086575;28;20119;-83
2023/08/30 08:13:07;;;;;;;904.13;808.65;;;16.00;99.90;;;;;;5085843;28;20051;-83
2023/08/30 08:15:34;;;;;;;926.13;825.70;;;16.10;99.90;;;;;;5063171;28;20043;-83
2023/08/30 08:18:01;;;;;;;939.15;835.70;;;16.10;99.90;;;;;;5069338;28;20048;-83
2023/08/30 08:20:28;;;;;;;934.63;832.58;;;16.20;99.90;;;;;;5079605;28;20036;-82
2023/08/30 08:22:54;;;;;;;890.08;791.70;;;16.30;99.90;;;;;;5092109;28;20040;-83
2023/08/30 08:25:22;;;;;;;804.20;717.00;;;16.30;99.90;;;;;;5088151;28;20501;-83
2023/08/30 08:27:48;;;;;;;735.08;658.45;;;16.40;99.90;;;;;;5090779;28;20040;-83
2023/08/30 08:30:14;;;;;;;856.42;764.22;;;16.40;99.90;;;;;;5079334;28;20402;-84
2023/08/30 08:32:39;;;;;;;708.30;638.63;;;16.40;99.90;;;;;;5065826;28;20047;-83
2023/08/30 08:35:05;;;;;;;885.97;789.58;;;16.50;99.90;;;;;;5097448;28;20126;-83
2023/08/30 08:37:32;;;;;;;672.72;600.58;;;16.50;99.90;;;;;;5072646;28;20194;-83
2023/08/30 08:39:58;;;;;;;553.10;499.60;;;16.60;99.90;;;;;;5070513;28;20043;-83
2023/08/30 08:42:23;;;;;;;465.65;417.00;;;16.60;99.90;;;;;;5110576;28;20039;-83
2023/08/30 08:44:54;;;;;;;425.33;381.30;;;16.70;99.90;;;;;;5092729;28;20108;-83
2023/08/30 08:47:21;;;;;;;486.05;439.20;;;16.60;99.90;;;;;;5091798;28;20040;-83
2023/08/30 08:49:51;;;;;;;507.70;456.63;;;16.70;99.90;;;;;;5075184;28;20062;-82
2023/08/30 08:52:17;;;;;;;401.58;359.70;;;16.80;99.90;;;;;;5106829;28;20055;-82
2023/08/30 08:54:43;;;;;;;524.03;471.52;;;16.90;99.90;;;;;;5109200;28;20043;-83
2023/08/30 08:57:09;;;;;;;560.95;508.52;;;16.90;99.90;;;;;;5110294;28;20039;-83
2023/08/30 08:59:35;;;;;;;397.20;355.88;;;17.00;99.90;;;;;;5075380;28;20478;-82
2023/08/30 09:02:02;;;;;;;445.20;397.60;;;17.10;99.90;;;;;;5086650;28;20131;-82
2023/08/30 09:04:31;;;;;;;630.38;566.40;;;17.20;99.90;;;;;;5084763;28;20075;-84
2023/08/30 09:06:58;;;;;;;545.53;489.83;;;17.10;99.90;;;;;;5091689;28;20390;-82
2023/08/30 09:09:24;;;;;;;480.08;431.15;;;17.10;99.90;;;;;;5090777;28;20052;-83
2023/08/30 09:11:50;;;;;;;573.83;517.33;;;17.00;99.90;;;;;;5071406;28;20155;-83
2023/08/30 09:14:16;;;;;;;677.13;610.17;;;17.00;99.90;;;;;;5103671;28;20040;-82
2023/08/30 09:16:42;;;;;;;513.58;463.20;;;16.90;99.90;;;;;;5109602;28;20503;-82
2023/08/30 09:19:10;;;;;;;583.95;526.58;;;16.80;99.90;;;;;;5092409;28;20047;-82
2023/08/30 09:21:36;;;;;;;658.10;590.78;;;16.70;99.90;;;;;;5074640;28;20096;-83
2023/08/30 09:24:03;;;;;;;710.60;633.97;;;16.70;99.90;;;;;;5092558;28;20039;-82
2023/08/30 09:26:31;;;;;;;796.03;708.53;;;16.60;99.90;;;;;;5079969;28;20169;-81
2023/08/30 09:29:08;;;;;;;621.60;556.72;;;16.60;99.90;;;;;;5089622;28;20123;-82
2023/08/30 09:31:39;;;;;;;449.10;400.40;;;16.60;99.90;;;;;;5075681;28;20393;-82
2023/08/30 09:34:05;;;;;;;626.00;558.63;;;16.60;99.90;;;;;;5091442;28;20060;-81
2023/08/30 09:36:50;;;;;;;496.45;445.33;;;16.60;99.90;;;;;;5071291;28;20502;-82
2023/08/30 09:39:15;;;;;;;455.00;408.17;;;16.60;99.90;;;;;;5073551;28;20123;-82
2023/08/30 09:41:49;;;;;;;571.17;511.20;;;16.60;99.90;;;;;;5062190;28;20165;-81
2023/08/30 09:44:17;;;;;;;665.75;594.28;;;16.50;99.90;;;;;;5091746;28;20085;-82
2023/08/30 09:46:50;;;;;;;605.78;542.03;;;16.50;99.90;;;;;;5091111;28;20054;-82
2023/08/30 09:49:22;;;;;;;630.53;564.92;;;16.60;99.90;;;;;;5110110;28;20047;-81
2023/08/30 09:51:49;;;;;;;610.35;549.42;;;16.60;99.90;;;;;;5089715;28;20043;-83
2023/08/30 09:54:19;;;;;;;752.80;673.97;;;16.70;99.90;;;;;;5073331;28;20043;-83
2023/08/30 09:56:47;;;;;;;509.65;456.58;;;16.70;99.90;;;;;;5074046;28;20048;-82
2023/08/30 09:59:14;;;;;;;569.58;511.20;;;16.70;99.90;;;;;;5081611;28;20062;-82
2023/08/30 10:01:41;;;;;;;731.30;658.05;;;16.60;99.90;;;;;;5074612;28;20040;-82
2023/08/30 10:04:09;;;;;;;807.03;719.85;;;16.60;99.90;;;;;;5091352;28;20142;-82
2023/08/30 10:06:38;;;;;;;860.45;768.08;;;16.50;99.90;;;;;;5091969;28;20105;-83
2023/08/30 10:09:07;;;;;;;570.97;511.10;;;16.50;99.90;;;;;;5091732;28;20048;-82
2023/08/30 10:11:35;;;;;;;452.60;407.42;;;16.50;99.90;;;;;;5074080;28;20031;-82
2023/08/30 10:14:07;;;;;;;452.95;410.13;;;16.60;99.90;;;;;;5072902;28;20052;-82
2023/08/30 10:16:44;;;;;;;603.93;544.53;;;16.70;99.90;;;;;;5108362;28;20116;-82
2023/08/30 10:19:24;;;;;;;659.92;596.88;;;16.80;99.90;;;;;;5090189;28;20494;-82
2023/08/30 10:22:03;;;;;;;587.22;530.40;;;16.90;99.90;;;;;;5086735;28;20051;-82
2023/08/30 10:24:36;;;;;;;582.17;523.80;;;17.00;99.90;;;;;;5073023;28;20044;-82
2023/08/30 10:27:04;;;;;;;458.40;410.67;;;17.00;99.90;;;;;;5073925;28;20396;-82
2023/08/30 10:29:33;;;;;;;558.67;500.13;;;16.90;99.90;;;;;;5098449;28;20101;-83
2023/08/30 10:32:04;;;;;;;627.42;565.50;;;16.80;99.90;;;;;;5073770;28;20039;-83
2023/08/30 10:34:33;;;;;;;626.28;564.63;;;16.90;99.90;;;;;;5083721;28;20056;-83
2023/08/30 10:37:02;;;;;;;533.30;479.08;;;17.00;99.90;;;;;;5069667;28;20442;-82
2023/08/30 10:39:39;;;;;;;414.27;374.30;;;17.10;99.90;;;;;;5095886;28;20127;-82
2023/08/30 10:42:15;;;;;;;594.15;535.25;;;17.30;99.90;;;;;;5090744;28;20043;-83
2023/08/30 10:45:07;;;;;;;663.15;597.17;;;17.50;99.90;;;;;;5090218;28;20683;-83
2023/08/30 10:47:37;;;;;;;480.40;434.38;;;17.70;99.90;;;;;;5098789;28;20051;-83
2023/08/30 10:50:12;;;;;;;320.75;289.15;;;18.00;99.90;;;;;;5108726;28;20451;-83
2023/08/30 10:52:38;;;;;;;578.30;519.70;;;18.20;99.90;;;;;;5109209;28;20046;-84
2023/08/30 10:55:07;;;;;;;572.97;515.90;;;18.30;99.90;;;;;;5089094;28;20035;-83
2023/08/30 10:57:33;;;;;;;550.03;495.10;;;18.30;99.90;;;;;;5073634;28;20047;-83
2023/08/30 11:00:13;;;;;;;600.65;540.53;;;18.20;99.90;;;;;;5086416;28;20036;-82
2023/08/30 11:02:44;;;;;;;735.15;662.92;;;18.20;99.90;;;;;;5082512;28;20044;-83
2023/08/30 11:05:10;;;;;;;754.83;684.25;;;18.10;99.90;;;;;;5070123;28;20097;-82
2023/08/30 11:07:36;;;;;;;580.78;524.67;;;18.00;99.90;;;;;;5089850;28;20444;-83
2023/08/30 11:10:06;;;;;;;630.63;568.40;;;17.90;99.90;;;;;;5088502;28;20048;-83
2023/08/30 11:12:31;;;;;;;528.53;475.45;;;18.00;99.90;;;;;;5090440;28;20495;-83
2023/08/30 11:14:57;;;;;;;629.72;568.08;;;18.00;99.90;;;;;;5071261;28;20395;-83
2023/08/30 11:17:23;;;;;;;649.92;585.78;;;18.00;99.90;;;;;;5108747;28;20042;-83
2023/08/30 11:19:58;;;;;;;578.00;520.67;;;18.00;99.90;;;;;;5088832;28;20048;-83
2023/08/30 11:22:25;;;;;;;569.65;511.63;;;18.10;99.90;;;;;;5072550;28;20051;-84
2023/08/30 11:24:51;;;;;;;565.63;509.13;;;18.10;99.90;;;;;;5106288;28;20043;-83
2023/08/30 11:27:18;;;;;;;569.10;515.03;;;18.20;99.90;;;;;;5107309;28;20411;-83
2023/08/30 11:29:43;;;;;;;637.60;577.15;;;18.20;99.90;;;;;;5086357;28;20039;-83
2023/08/30 11:32:09;;;;;;;643.42;581.10;;;18.20;99.90;;;;;;5083860;28;20483;-83
2023/08/30 11:34:35;;;;;;;558.20;502.13;;;18.20;99.90;;;;;;5084004;28;20051;-84
2023/08/30 11:37:01;;;;;;;720.33;649.95;;;18.30;99.90;;;;;;5086522;28;20051;-83
2023/08/30 11:39:30;;;;;;;702.95;635.70;;;18.30;99.90;;;;;;5087531;28;20047;-84
2023/08/30 11:41:56;;;;;;;854.33;773.28;;;18.40;99.90;;;;;;5085323;28;20032;-83
2023/08/30 11:44:28;;;;;;;693.65;628.00;;;18.40;99.90;;;;;;5082459;28;20040;-84
2023/08/30 11:46:59;;;;;;;656.60;594.95;;;18.40;99.90;;;;;;5082187;28;20044;-84
2023/08/30 11:49:24;;;;;;;606.38;549.15;;;18.40;99.90;;;;;;5073990;28;20050;-84
2023/08/30 11:51:52;;;;;;;697.80;630.30;;;18.30;99.90;;;;;;5086511;28;20044;-84
2023/08/30 11:54:20;;;;;;;817.42;742.45;;;18.30;99.90;;;;;;5067322;28;20058;-83
2023/08/30 11:56:46;;;;;;;713.03;647.45;;;18.20;99.90;;;;;;5080865;28;20410;-83
2023/08/30 11:59:23;;;;;;;653.85;593.72;;;18.10;99.90;;;;;;5088722;28;20043;-84
2023/08/30 12:01:52;;;;;;;613.22;554.28;;;18.10;99.90;;;;;;5068179;28;20044;-84
2023/08/30 12:04:18;;;;;;;637.38;577.97;;;18.00;99.90;;;;;;5051740;28;20054;-84